Time;durP1;ratioP1;P1;durP2;ratioP2;P2;SDS_P1;SDS_P2;PMS_P1;PMS_P2;Temp;Humidity;BMP_temperature;BMP_pressure;BME280_temperature;BME280_humidity;BME280_pressure;Samples;Min_cycle;Max_cycle;Signal;HPM_P1;HPM_P2
2022/09/20 00:01:21;;;;;;;8.02;1.50;;;9.90;99.90;;;;;;5073549;28;19966;-70
2022/09/20 00:03:49;;;;;;;8.10;1.30;;;9.80;99.90;;;;;;5073708;28;20475;-70
2022/09/20 00:06:18;;;;;;;9.13;1.30;;;9.70;99.90;;;;;;5073456;28;20044;-70
2022/09/20 00:08:44;;;;;;;6.68;1.23;;;9.70;99.90;;;;;;5073376;28;20095;-70
2022/09/20 00:11:14;;;;;;;5.47;1.50;;;9.60;99.90;;;;;;5073520;28;20091;-70
2022/09/20 00:13:41;;;;;;;8.80;1.80;;;9.50;99.90;;;;;;5073464;28;20044;-70
2022/09/20 00:16:09;;;;;;;10.27;1.75;;;9.40;99.90;;;;;;5038803;28;20123;-70
2022/09/20 00:18:35;;;;;;;8.20;1.30;;;9.30;99.90;;;;;;5073277;28;20045;-70
2022/09/20 00:21:01;;;;;;;10.30;2.15;;;9.30;99.90;;;;;;5073228;28;20040;-70
2022/09/20 00:23:28;;;;;;;8.02;1.90;;;9.20;99.90;;;;;;5072995;28;20544;-70
2022/09/20 00:26:00;;;;;;;7.28;1.85;;;9.10;99.90;;;;;;5073351;28;20080;-70
2022/09/20 00:28:26;;;;;;;8.32;1.70;;;9.10;99.90;;;;;;5055197;28;20041;-70
2022/09/20 00:30:53;;;;;;;5.88;1.30;;;9.00;99.90;;;;;;5073154;28;20175;-70
2022/09/20 00:33:20;;;;;;;5.97;1.48;;;8.90;99.90;;;;;;5073162;28;20041;-70
2022/09/20 00:35:46;;;;;;;10.25;2.33;;;8.80;99.90;;;;;;5073028;28;20048;-70
2022/09/20 00:38:15;;;;;;;7.00;1.23;;;8.80;99.90;;;;;;5073178;28;20410;-70
2022/09/20 00:40:43;;;;;;;5.65;1.30;;;8.70;99.90;;;;;;5073334;28;20041;-71
2022/09/20 00:43:13;;;;;;;;;;;8.70;99.90;;;;;;5073460;28;20127;-70
2022/09/20 00:45:39;;;;;;;5.70;1.40;;;;;;;;;;5073155;28;20003;-70
2022/09/20 00:48:18;;;;;;;8.48;1.92;;;8.60;99.90;;;;;;5073091;28;20131;-71
2022/09/20 00:50:50;;;;;;;5.25;1.23;;;8.50;99.90;;;;;;5072895;28;20052;-70
2022/09/20 00:53:20;;;;;;;10.48;1.15;;;8.50;99.90;;;;;;5073147;28;20090;-70
2022/09/20 00:55:56;;;;;;;11.30;1.42;;;8.40;99.90;;;;;;5072760;28;20123;-70
2022/09/20 00:58:26;;;;;;;7.57;1.48;;;8.40;99.90;;;;;;5072909;28;20041;-70
2022/09/20 01:00:53;;;;;;;7.65;1.63;;;8.30;99.90;;;;;;5072679;28;20049;-71
2022/09/20 01:03:21;;;;;;;5.72;1.48;;;8.40;99.90;;;;;;5073085;28;20072;-70
2022/09/20 01:05:49;;;;;;;6.65;1.50;;;8.30;99.90;;;;;;5072984;28;20044;-70
2022/09/20 01:08:16;;;;;;;9.63;1.80;;;8.30;99.90;;;;;;5072948;28;20415;-70
2022/09/20 01:10:41;;;;;;;8.75;1.90;;;8.30;99.90;;;;;;5072979;28;20036;-70
2022/09/20 01:13:08;;;;;;;8.80;1.48;;;8.20;99.90;;;;;;5072668;28;20044;-71
2022/09/20 01:15:37;;;;;;;4.97;1.40;;;8.20;99.90;;;;;;5072559;28;20404;-71
2022/09/20 01:18:05;;;;;;;8.80;1.65;;;8.10;99.90;;;;;;5072882;28;20094;-70
2022/09/20 01:20:32;;;;;;;;;;;8.10;99.90;;;;;;5073210;28;20056;-70
2022/09/20 01:23:06;;;;;;;9.05;2.13;;;8.10;99.90;;;;;;5072650;28;19920;-71
2022/09/20 01:25:59;;;;;;;9.75;1.98;;;8.00;99.90;;;;;;5072679;28;20128;-70
2022/09/20 01:28:27;;;;;;;10.57;1.85;;;8.00;99.90;;;;;;5072773;28;20047;-71
2022/09/20 01:31:06;;;;;;;7.50;1.95;;;8.00;99.90;;;;;;5056564;28;20044;-70
2022/09/20 01:33:40;;;;;;;7.10;1.80;;;8.00;99.90;;;;;;5076320;28;20045;-70
2022/09/20 01:36:10;;;;;;;8.50;1.65;;;8.00;99.90;;;;;;5076198;28;20119;-70
2022/09/20 01:39:06;;;;;;;9.70;1.92;;;8.00;99.90;;;;;;5075604;28;20048;-70
2022/09/20 01:41:45;;;;;;;6.63;1.67;;;7.90;99.90;;;;;;5076198;28;20044;-70
2022/09/20 01:44:23;;;;;;;10.70;2.13;;;7.90;99.90;;;;;;5076121;28;20040;-70
2022/09/20 01:46:58;;;;;;;11.32;2.20;;;7.90;99.90;;;;;;5075874;28;20079;-70
2022/09/20 01:49:39;;;;;;;6.35;1.67;;;7.80;99.90;;;;;;5076040;28;20068;-70
2022/09/20 01:52:23;;;;;;;10.45;1.80;;;7.80;99.90;;;;;;5075978;28;20051;-70
2022/09/20 01:55:42;;;;;;;8.65;1.60;;;7.80;99.90;;;;;;5075888;28;20083;-70
2022/09/20 01:58:25;;;;;;;9.30;1.60;;;7.80;99.90;;;;;;4975138;28;20074;-70
2022/09/20 02:00:59;;;;;;;13.07;2.65;;;7.80;99.90;;;;;;4974847;28;20130;-70
2022/09/20 02:03:51;;;;;;;5.25;1.58;;;7.80;99.90;;;;;;4974963;28;20055;-70
2022/09/20 02:06:17;;;;;;;12.00;1.85;;;7.70;99.90;;;;;;4974876;28;20430;-70
2022/09/20 02:09:06;;;;;;;6.38;1.35;;;7.80;99.90;;;;;;4958829;28;20067;-70
2022/09/20 02:12:18;;;;;;;4.40;1.50;;;7.70;99.90;;;;;;4974806;28;20564;-70
2022/09/20 02:15:15;;;;;;;6.93;1.92;;;7.70;99.90;;;;;;4930955;29;20062;-70
2022/09/20 02:17:59;;;;;;;8.03;1.60;;;7.60;99.90;;;;;;4936083;29;20467;-70
2022/09/20 02:21:00;;;;;;;7.60;1.48;;;7.60;99.90;;;;;;4936097;29;20083;-70
2022/09/20 02:23:31;;;;;;;7.70;1.80;;;7.60;99.90;;;;;;4935944;29;20063;-70
2022/09/20 02:26:15;;;;;;;7.22;1.73;;;7.60;99.90;;;;;;4935955;29;20086;-70
2022/09/20 02:29:06;;;;;;;6.90;2.42;;;7.60;99.90;;;;;;4959912;28;20066;-70
2022/09/20 02:32:06;;;;;;;9.68;1.75;;;7.60;99.90;;;;;;4993756;28;20057;-70
2022/09/20 02:34:45;;;;;;;10.55;2.13;;;7.50;99.90;;;;;;4975093;28;20054;-70
2022/09/20 02:37:50;;;;;;;6.90;2.38;;;7.50;99.90;;;;;;4993635;28;20097;-70
2022/09/20 02:40:41;;;;;;;7.28;2.30;;;7.50;99.90;;;;;;4993404;28;20059;-70
2022/09/20 02:43:28;;;;;;;6.95;1.75;;;7.50;99.90;;;;;;4992541;28;20035;-70
2022/09/20 02:46:07;;;;;;;7.67;1.83;;;7.50;99.90;;;;;;4993539;28;20627;-70
2022/09/20 02:48:48;;;;;;;8.77;1.63;;;7.60;99.90;;;;;;4993546;28;20196;-70
2022/09/20 02:51:20;;;;;;;5.20;1.60;;;7.60;99.90;;;;;;5029958;28;20126;-70
2022/09/20 02:54:27;;;;;;;6.82;1.83;;;7.60;99.90;;;;;;5056884;28;20467;-70
2022/09/20 02:57:01;;;;;;;7.30;1.87;;;7.60;99.90;;;;;;5074751;28;20044;-70
2022/09/20 02:59:57;;;;;;;7.03;1.65;;;7.60;99.90;;;;;;5074722;28;20321;-70
2022/09/20 03:02:36;;;;;;;9.43;1.90;;;7.60;99.90;;;;;;5056783;28;20052;-70
2022/09/20 03:05:10;;;;;;;5.35;1.92;;;7.60;99.90;;;;;;5074591;28;20056;-70
2022/09/20 03:08:17;;;;;;;8.45;1.95;;;7.60;99.90;;;;;;5074477;28;20044;-70
2022/09/20 03:10:48;;;;;;;7.43;2.17;;;7.60;99.90;;;;;;5069228;28;20179;-70
2022/09/20 03:13:34;;;;;;;7.35;1.92;;;7.60;99.90;;;;;;5074516;28;20045;-70
2022/09/20 03:16:36;;;;;;;7.38;1.55;;;7.60;99.90;;;;;;5074305;28;20051;-70
2022/09/20 03:19:17;;;;;;;8.60;2.10;;;7.50;99.90;;;;;;5074307;28;20044;-70
2022/09/20 03:22:27;;;;;;;7.13;1.52;;;7.50;99.90;;;;;;5074201;28;20480;-70
2022/09/20 03:25:05;;;;;;;9.98;2.03;;;7.50;99.90;;;;;;5074257;28;20120;-70
2022/09/20 03:27:48;;;;;;;7.25;1.70;;;7.60;99.90;;;;;;5074408;28;20044;-70
2022/09/20 03:30:41;;;;;;;6.57;1.60;;;7.50;99.90;;;;;;5074029;28;20087;-70
2022/09/20 03:33:33;;;;;;;7.57;1.92;;;7.50;99.90;;;;;;5073739;28;20052;-70
2022/09/20 03:36:34;;;;;;;7.35;1.90;;;7.50;99.90;;;;;;5074181;28;20075;-70
2022/09/20 03:39:06;;;;;;;6.85;1.50;;;7.50;99.90;;;;;;5073498;28;20060;-70
2022/09/20 03:42:10;;;;;;;7.22;1.60;;;7.40;99.90;;;;;;5073647;28;20055;-70
2022/09/20 03:44:58;;;;;;;6.45;1.92;;;7.40;99.90;;;;;;5055734;28;20495;-70
2022/09/20 03:47:45;;;;;;;8.35;2.08;;;7.40;99.90;;;;;;5073689;28;20544;-70
2022/09/20 03:50:28;;;;;;;9.20;2.17;;;7.40;99.90;;;;;;5073875;28;20045;-70
2022/09/20 03:53:08;;;;;;;5.05;2.20;;;7.40;99.90;;;;;;5073447;28;20484;-70
2022/09/20 03:55:55;;;;;;;6.60;1.70;;;7.50;99.90;;;;;;5073532;28;20060;-70
2022/09/20 03:58:41;;;;;;;7.37;2.53;;;7.60;99.90;;;;;;5073705;28;20082;-70
2022/09/20 04:01:33;;;;;;;5.55;1.48;;;7.50;99.90;;;;;;5073473;28;20041;-70
2022/09/20 04:04:11;;;;;;;8.60;1.73;;;7.50;99.90;;;;;;5073453;28;20123;-70
2022/09/20 04:06:45;;;;;;;7.18;1.50;;;7.50;99.90;;;;;;5073379;28;20534;-70
2022/09/20 04:09:19;;;;;;;12.43;2.10;;;7.50;99.90;;;;;;5073738;28;20078;-70
2022/09/20 04:11:56;;;;;;;5.63;1.65;;;7.50;99.90;;;;;;5073708;28;20052;-70
2022/09/20 04:14:59;;;;;;;10.77;1.80;;;7.50;99.90;;;;;;5073305;28;20484;-70
2022/09/20 04:17:43;;;;;;;6.78;1.80;;;7.50;99.90;;;;;;5055253;28;20056;-70
2022/09/20 04:20:16;;;;;;;8.70;1.75;;;7.50;99.90;;;;;;5073339;28;20047;-70
2022/09/20 04:22:45;;;;;;;5.97;1.75;;;7.60;99.90;;;;;;5073289;28;20075;-70
2022/09/20 04:25:18;;;;;;;8.18;2.00;;;7.60;99.90;;;;;;5073007;28;20491;-70
2022/09/20 04:27:52;;;;;;;8.05;2.00;;;7.70;99.90;;;;;;5073479;28;20114;-70
2022/09/20 04:30:28;;;;;;;11.30;2.28;;;7.70;99.90;;;;;;5055151;28;20048;-70
2022/09/20 04:33:12;;;;;;;10.80;2.28;;;7.80;99.90;;;;;;5073122;28;20059;-70
2022/09/20 04:36:30;;;;;;;7.53;2.42;;;7.90;99.90;;;;;;5055045;28;20056;-70
2022/09/20 04:39:22;;;;;;;8.98;2.40;;;8.00;99.90;;;;;;5072917;28;20087;-70
2022/09/20 04:42:07;;;;;;;5.90;2.13;;;8.10;99.90;;;;;;5072898;28;20049;-70
2022/09/20 04:45:01;;;;;;;7.10;2.40;;;8.30;99.90;;;;;;5073176;28;20048;-70
2022/09/20 04:48:04;;;;;;;8.27;2.40;;;8.30;99.90;;;;;;5073318;28;20130;-70
2022/09/20 04:50:49;;;;;;;9.27;2.38;;;8.40;99.90;;;;;;5073047;28;20048;-70
2022/09/20 04:53:33;;;;;;;8.07;2.45;;;8.40;99.90;;;;;;5073048;28;20166;-70
2022/09/20 04:56:21;;;;;;;9.10;2.25;;;8.50;99.90;;;;;;5072882;28;20044;-70
2022/09/20 04:58:46;;;;;;;;;;;8.50;99.90;;;;;;5073414;28;20099;-70
2022/09/20 05:01:20;;;;;;;5.53;2.30;;;8.60;99.90;;;;;;5055047;28;20375;-70
2022/09/20 05:04:01;;;;;;;6.57;2.17;;;8.70;99.90;;;;;;5072900;28;20048;-70
2022/09/20 05:07:31;;;;;;;11.02;2.70;;;8.70;99.90;;;;;;5075696;28;20387;-70
2022/09/20 05:10:15;;;;;;;5.93;2.20;;;8.80;99.90;;;;;;4959635;28;20094;-70
2022/09/20 05:13:03;;;;;;;12.43;2.35;;;8.90;99.90;;;;;;4975783;28;20618;-70
2022/09/20 05:15:35;;;;;;;8.88;2.40;;;8.90;99.90;;;;;;4975751;28;20461;-70
2022/09/20 05:18:33;;;;;;;5.75;2.30;;;8.90;99.90;;;;;;4959629;28;20082;-70
2022/09/20 05:21:24;;;;;;;7.50;2.20;;;9.00;99.90;;;;;;4975636;28;20051;-70
2022/09/20 05:24:22;;;;;;;5.88;2.20;;;9.00;99.90;;;;;;4975661;28;20086;-70
2022/09/20 05:27:18;;;;;;;5.22;2.13;;;9.10;99.90;;;;;;4975598;28;20105;-70
2022/09/20 05:29:56;;;;;;;6.38;2.05;;;9.10;99.90;;;;;;4975386;28;20207;-70
2022/09/20 05:32:24;;;;;;;6.30;2.55;;;9.10;99.90;;;;;;4975522;28;20050;-70
2022/09/20 05:35:01;;;;;;;8.60;2.55;;;9.20;99.90;;;;;;4975405;28;20049;-70
2022/09/20 05:37:42;;;;;;;7.73;2.63;;;9.20;99.90;;;;;;4975185;28;20118;-70
2022/09/20 05:40:58;;;;;;;7.85;2.50;;;9.30;99.90;;;;;;4958922;28;20066;-71
2022/09/20 05:43:32;;;;;;;5.63;2.13;;;9.30;99.90;;;;;;5023648;28;20191;-70
2022/09/20 05:46:33;;;;;;;5.68;2.20;;;9.40;99.90;;;;;;5076220;28;20037;-70
2022/09/20 05:49:24;;;;;;;9.32;2.25;;;9.30;99.90;;;;;;5076261;28;20071;-70
2022/09/20 05:52:35;;;;;;;4.53;2.08;;;9.40;99.90;;;;;;5076007;28;20044;-70
2022/09/20 05:55:30;;;;;;;6.10;2.40;;;9.40;99.90;;;;;;4959056;28;20064;-70
2022/09/20 05:58:21;;;;;;;7.63;2.17;;;9.30;99.90;;;;;;4975184;28;20137;-70
2022/09/20 06:00:57;;;;;;;7.72;2.50;;;9.40;99.90;;;;;;4958757;28;20050;-70
2022/09/20 06:03:31;;;;;;;7.93;2.10;;;9.40;99.90;;;;;;4974999;28;20512;-70
2022/09/20 06:06:15;;;;;;;4.57;1.63;;;9.50;99.90;;;;;;4974836;28;20051;-70
2022/09/20 06:09:10;;;;;;;8.88;2.22;;;9.50;99.90;;;;;;4974723;28;20106;-70
2022/09/20 06:12:01;;;;;;;8.98;2.20;;;9.60;99.90;;;;;;4974732;28;20057;-70
2022/09/20 06:14:36;;;;;;;8.88;2.28;;;9.70;99.90;;;;;;4974665;28;20090;-70
2022/09/20 06:17:18;;;;;;;5.65;1.92;;;9.80;99.90;;;;;;4974412;28;20058;-70
2022/09/20 06:20:25;;;;;;;4.68;2.25;;;9.90;99.90;;;;;;4974587;28;20125;-71
2022/09/20 06:22:54;;;;;;;8.13;2.28;;;10.10;99.90;;;;;;4974621;28;20063;-70
2022/09/20 06:25:29;;;;;;;5.55;2.10;;;10.20;99.90;;;;;;4958586;28;20446;-71
2022/09/20 06:28:07;;;;;;;6.22;2.00;;;10.30;99.90;;;;;;4970451;28;20536;-71
2022/09/20 06:30:36;;;;;;;6.57;1.77;;;10.30;99.90;;;;;;5075451;28;20044;-71
2022/09/20 06:33:19;;;;;;;7.28;1.75;;;10.40;99.90;;;;;;5075331;28;20040;-70
2022/09/20 06:42:05;;;;;;;4.60;1.80;;;10.60;99.90;;;;;;5074996;28;20058;-71
2022/09/20 06:44:31;;;;;;;5.43;1.75;;;11.40;99.90;;;;;;5074915;28;20115;-70
2022/09/20 06:46:56;;;;;;;6.47;1.98;;;10.60;99.90;;;;;;5074690;28;20090;-70
2022/09/20 06:49:23;;;;;;;10.00;1.90;;;10.60;99.90;;;;;;5074979;28;20041;-70
2022/09/20 06:51:49;;;;;;;9.20;1.95;;;10.60;99.90;;;;;;5056991;28;20090;-70
2022/09/20 06:54:20;;;;;;;5.55;1.90;;;10.70;99.90;;;;;;5074599;28;20519;-71
2022/09/20 06:56:47;;;;;;;8.52;2.00;;;10.70;99.90;;;;;;5074550;28;20043;-70
2022/09/20 06:59:14;;;;;;;5.97;2.35;;;10.80;99.90;;;;;;5076096;28;20071;-71
2022/09/20 07:01:40;;;;;;;4.32;2.00;;;10.80;99.90;;;;;;5076814;28;20040;-70
2022/09/20 07:04:07;;;;;;;7.82;2.65;;;10.90;99.90;;;;;;5074891;28;20402;-71
2022/09/20 07:06:33;;;;;;;5.85;2.10;;;11.10;99.90;;;;;;5085568;28;20044;-70
2022/09/20 07:08:58;;;;;;;8.00;2.10;;;11.20;99.90;;;;;;5094587;28;20153;-70
2022/09/20 07:11:24;;;;;;;7.43;2.47;;;11.40;99.90;;;;;;5094827;28;20036;-71
2022/09/20 07:13:51;;;;;;;7.13;1.90;;;;;;;;;;5094453;28;20047;-72
2022/09/20 07:16:17;;;;;;;6.53;1.95;;;11.70;99.90;;;;;;5093391;28;20075;-71
2022/09/20 07:18:43;;;;;;;4.95;1.83;;;11.70;99.90;;;;;;5094543;28;20117;-71
2022/09/20 07:21:14;;;;;;;3.75;1.77;;;11.70;99.90;;;;;;5076263;28;20035;-70
2022/09/20 07:23:40;;;;;;;6.68;1.73;;;11.70;99.90;;;;;;5091744;28;20040;-70
2022/09/20 07:26:06;;;;;;;5.80;1.90;;;11.70;99.90;;;;;;5094357;28;20048;-70
2022/09/20 07:28:33;;;;;;;5.45;1.63;;;11.70;99.90;;;;;;5091284;28;20089;-71
2022/09/20 07:31:00;;;;;;;6.70;1.80;;;11.70;99.90;;;;;;5094108;28;20487;-71
2022/09/20 07:33:25;;;;;;;7.10;2.05;;;11.70;99.90;;;;;;5094280;28;20051;-70
2022/09/20 07:35:55;;;;;;;6.22;1.80;;;11.80;99.90;;;;;;5074970;28;20044;-70
2022/09/20 07:38:22;;;;;;;3.85;1.95;;;11.80;99.90;;;;;;5093457;28;20046;-71
2022/09/20 07:40:55;;;;;;;5.43;1.88;;;11.90;99.90;;;;;;5094128;28;20040;-70
2022/09/20 07:43:21;;;;;;;5.05;2.30;;;12.00;99.90;;;;;;5094261;28;20044;-71
2022/09/20 07:45:53;;;;;;;6.68;1.83;;;12.30;99.90;;;;;;5091412;28;20172;-71
2022/09/20 07:48:19;;;;;;;6.97;1.95;;;12.50;99.90;;;;;;5094048;28;20040;-71
2022/09/20 07:50:54;;;;;;;7.18;1.90;;;12.50;99.90;;;;;;5094015;28;20048;-71
2022/09/20 07:53:20;;;;;;;3.25;1.98;;;12.70;99.90;;;;;;5093056;28;20040;-71
2022/09/20 07:55:58;;;;;;;4.80;2.15;;;12.90;99.90;;;;;;5093766;28;20055;-70
2022/09/20 07:58:23;;;;;;;5.68;1.67;;;13.10;99.90;;;;;;5093886;28;20083;-70
2022/09/20 08:00:58;;;;;;;5.35;1.83;;;13.20;99.90;;;;;;5094014;28;20068;-70
2022/09/20 08:03:25;;;;;;;3.88;1.88;;;13.40;99.90;;;;;;5093732;28;20040;-71
2022/09/20 08:05:57;;;;;;;4.25;1.67;;;13.60;99.90;;;;;;5092967;28;20036;-71
2022/09/20 08:08:22;;;;;;;5.65;1.83;;;13.70;99.90;;;;;;5093979;28;20089;-70
2022/09/20 08:10:48;;;;;;;6.28;1.55;;;13.90;99.90;;;;;;5093665;28;20043;-70
2022/09/20 08:13:14;;;;;;;4.00;1.50;;;14.30;99.90;;;;;;5093551;28;20036;-71
2022/09/20 08:15:41;;;;;;;3.55;1.70;;;14.40;99.90;;;;;;5091079;28;20043;-71
2022/09/20 08:18:07;;;;;;;5.97;1.67;;;14.60;99.90;;;;;;5093801;28;20394;-71
2022/09/20 08:20:37;;;;;;;4.50;1.70;;;14.70;99.90;;;;;;5075350;28;20044;-71
2022/09/20 08:23:04;;;;;;;5.90;2.03;;;14.60;99.90;;;;;;5089407;28;20085;-71
2022/09/20 08:25:30;;;;;;;5.77;1.43;;;14.80;99.90;;;;;;5093579;28;20111;-70
2022/09/20 08:27:56;;;;;;;6.95;1.52;;;15.00;99.90;;;;;;5092765;28;20173;-71
2022/09/20 08:30:22;;;;;;;2.25;0.85;;;15.00;99.90;;;;;;5093412;28;20629;-70
2022/09/20 08:32:48;;;;;;;9.18;2.17;;;14.80;99.90;;;;;;5093380;28;20059;-70
2022/09/20 08:35:14;;;;;;;2.88;1.20;;;15.00;99.90;;;;;;5093182;28;20483;-70
2022/09/20 08:37:42;;;;;;;5.22;1.10;;;15.00;99.90;;;;;;5093385;28;20040;-71
2022/09/20 08:40:11;;;;;;;3.90;1.58;;;14.70;99.90;;;;;;5093142;28;20068;-70
2022/09/20 08:42:38;;;;;;;5.43;1.33;;;14.80;99.90;;;;;;5097511;28;20032;-70
2022/09/20 08:45:10;;;;;;;2.85;0.95;;;14.80;99.90;;;;;;5079248;28;20526;-70
2022/09/20 08:47:43;;;;;;;6.85;1.15;;;15.10;99.90;;;;;;5097326;28;20031;-71
2022/09/20 08:50:14;;;;;;;2.63;0.80;;;15.20;99.90;;;;;;5096453;28;20044;-71
2022/09/20 08:52:43;;;;;;;5.03;0.95;;;15.10;99.90;;;;;;5097331;28;20046;-71
2022/09/20 08:55:21;;;;;;;4.68;1.58;;;15.00;99.90;;;;;;5097239;28;20040;-71
2022/09/20 08:57:55;;;;;;;3.78;0.93;;;15.00;99.90;;;;;;5097167;28;20127;-71
2022/09/20 09:00:31;;;;;;;4.10;1.02;;;15.10;99.90;;;;;;5094355;28;20441;-71
2022/09/20 09:03:02;;;;;;;3.90;1.23;;;15.20;99.90;;;;;;5097206;28;20115;-71
2022/09/20 09:05:35;;;;;;;4.20;1.00;;;15.30;99.90;;;;;;5078874;28;20090;-71
2022/09/20 09:08:15;;;;;;;4.18;0.90;;;15.60;99.90;;;;;;5097114;28;20032;-71
2022/09/20 09:10:44;;;;;;;3.60;1.00;;;15.70;99.90;;;;;;5096847;28;20044;-71
2022/09/20 09:13:41;;;;;;;2.42;0.90;;;15.80;99.90;;;;;;5096217;28;20119;-71
2022/09/20 09:16:15;;;;;;;3.73;0.87;;;16.00;99.90;;;;;;5061710;28;20052;-71
2022/09/20 09:18:43;;;;;;;4.43;0.90;;;16.10;99.90;;;;;;5096794;28;20305;-71
2022/09/20 09:21:26;;;;;;;6.20;1.13;;;16.20;99.90;;;;;;5096244;28;20040;-71
2022/09/20 09:24:02;;;;;;;4.95;0.90;;;16.20;99.90;;;;;;5096915;28;20051;-71
2022/09/20 09:26:34;;;;;;;4.30;1.20;;;16.00;99.90;;;;;;5096745;28;20048;-70
2022/09/20 09:29:20;;;;;;;6.22;1.25;;;15.80;99.90;;;;;;5093586;28;20036;-70
2022/09/20 09:31:48;;;;;;;6.28;1.40;;;15.80;99.90;;;;;;5096528;28;20040;-71
2022/09/20 09:34:29;;;;;;;2.90;1.20;;;16.10;99.90;;;;;;5094206;28;20052;-71
2022/09/20 09:36:56;;;;;;;3.92;0.85;;;16.20;99.90;;;;;;5096471;28;20040;-71
2022/09/20 09:39:28;;;;;;;5.28;1.00;;;15.80;99.90;;;;;;5096294;28;20059;-71
2022/09/20 09:41:55;;;;;;;2.75;0.82;;;16.10;99.90;;;;;;5096553;28;20123;-71
2022/09/20 09:44:26;;;;;;;5.03;1.63;;;15.80;99.90;;;;;;5095088;28;20417;-71
2022/09/20 09:46:53;;;;;;;3.67;0.80;;;15.90;99.90;;;;;;5096442;28;20043;-71
2022/09/20 09:49:22;;;;;;;5.22;0.80;;;15.70;99.90;;;;;;5096350;28;20040;-71
2022/09/20 09:52:14;;;;;;;3.25;0.90;;;15.80;99.90;;;;;;5095694;28;20101;-71
2022/09/20 09:54:46;;;;;;;4.20;0.80;;;15.60;99.90;;;;;;5092887;28;20089;-71
2022/09/20 09:57:52;;;;;;;5.10;0.80;;;15.80;99.90;;;;;;5077911;28;20445;-71
2022/09/20 10:00:25;;;;;;;3.90;0.70;;;15.80;99.90;;;;;;5096172;28;20048;-71
2022/09/20 10:03:03;;;;;;;4.05;0.98;;;15.70;99.90;;;;;;5075430;28;20572;-70
2022/09/20 10:05:31;;;;;;;1.92;0.60;;;15.90;99.90;;;;;;5096160;28;20049;-70
2022/09/20 10:08:13;;;;;;;2.05;0.85;;;15.80;99.90;;;;;;5061642;28;20082;-71
2022/09/20 10:10:49;;;;;;;2.53;0.70;;;15.90;99.90;;;;;;5095948;28;20153;-71
2022/09/20 10:13:29;;;;;;;3.45;0.70;;;15.90;99.90;;;;;;5093935;28;20044;-71
2022/09/20 10:16:12;;;;;;;5.90;0.82;;;15.90;99.90;;;;;;5095696;28;20426;-71
2022/09/20 10:19:00;;;;;;;3.33;0.63;;;15.90;99.90;;;;;;5095786;28;20082;-71
2022/09/20 10:21:56;;;;;;;2.08;0.50;;;16.00;99.90;;;;;;5094591;28;20448;-71
2022/09/20 10:24:48;;;;;;;4.68;0.65;;;16.10;99.90;;;;;;5095647;28;20043;-70
2022/09/20 10:27:16;;;;;;;4.13;1.02;;;16.30;99.90;;;;;;5048528;28;20048;-71
2022/09/20 10:30:09;;;;;;;5.45;0.70;;;16.60;99.90;;;;;;5076238;28;20056;-71
2022/09/20 10:32:50;;;;;;;2.20;0.73;;;16.90;99.90;;;;;;5075192;28;20491;-71
2022/09/20 10:35:43;;;;;;;4.00;1.00;;;16.70;99.90;;;;;;5075108;28;20570;-71
2022/09/20 10:38:20;;;;;;;3.47;0.73;;;16.60;99.90;;;;;;5074945;28;20075;-71
2022/09/20 10:44:21;;;;;;;3.03;0.90;;;16.40;99.90;;;;;;5095028;28;20048;-71
2022/09/20 10:47:13;;;;;;;3.33;0.77;;;16.10;99.90;;;;;;5095353;28;20085;-70
2022/09/20 10:49:55;;;;;;;4.95;0.90;;;16.20;99.90;;;;;;5093027;28;20050;-71
2022/09/20 10:52:27;;;;;;;3.53;0.90;;;16.50;99.90;;;;;;5096407;28;20097;-71
2022/09/20 10:55:07;;;;;;;2.65;0.80;;;16.30;99.90;;;;;;5094897;28;20040;-71
2022/09/20 10:58:06;;;;;;;4.03;0.80;;;16.60;99.90;;;;;;5092885;28;20054;-70
2022/09/20 11:00:55;;;;;;;3.95;0.80;;;16.70;99.90;;;;;;5095077;28;20136;-71
2022/09/20 11:03:57;;;;;;;5.47;1.00;;;16.90;99.90;;;;;;5072042;28;20415;-71
2022/09/20 11:06:50;;;;;;;3.20;0.70;;;17.20;99.90;;;;;;5094962;28;20048;-70
2022/09/20 11:09:20;;;;;;;2.00;0.55;;;17.10;99.90;;;;;;5076519;28;20044;-71
2022/09/20 11:11:51;;;;;;;1.80;0.88;;;16.90;99.90;;;;;;5093960;28;20043;-71
2022/09/20 11:14:32;;;;;;;3.47;0.70;;;16.50;99.90;;;;;;5094568;28;20040;-71
2022/09/20 11:17:07;;;;;;;3.58;0.75;;;16.00;99.90;;;;;;5094603;28;20079;-71
2022/09/20 11:19:47;;;;;;;2.47;0.80;;;15.70;99.90;;;;;;5093552;28;20071;-71
2022/09/20 11:22:39;;;;;;;2.38;0.75;;;15.70;99.90;;;;;;5074425;28;20041;-71
2022/09/20 11:25:19;;;;;;;2.88;0.60;;;15.70;99.90;;;;;;5073300;28;20060;-71
2022/09/20 11:27:48;;;;;;;3.28;0.80;;;15.70;99.90;;;;;;5074018;28;20056;-71
2022/09/20 11:30:18;;;;;;;2.40;0.50;;;15.60;99.90;;;;;;5076613;28;20044;-71
2022/09/20 11:33:06;;;;;;;1.70;0.55;;;15.60;99.90;;;;;;5093401;28;20075;-71
2022/09/20 11:35:54;;;;;;;3.13;0.70;;;15.50;99.90;;;;;;5094553;28;20433;-71
2022/09/20 11:38:45;;;;;;;2.38;0.68;;;15.40;99.90;;;;;;5093731;28;20498;-71
2022/09/20 11:41:24;;;;;;;2.72;0.68;;;15.50;99.90;;;;;;5089911;28;20051;-71
2022/09/20 11:43:52;;;;;;;1.88;0.70;;;15.60;99.90;;;;;;5094236;28;20071;-70
2022/09/20 11:46:25;;;;;;;2.90;0.70;;;15.60;99.90;;;;;;5094109;28;20040;-71
2022/09/20 11:48:59;;;;;;;3.40;0.60;;;15.80;99.90;;;;;;5094091;28;20512;-71
2022/09/20 11:51:35;;;;;;;3.42;0.70;;;15.90;99.90;;;;;;5094189;28;20051;-70
2022/09/20 11:54:10;;;;;;;4.18;0.85;;;16.00;99.90;;;;;;5090867;28;20040;-71
2022/09/20 11:56:37;;;;;;;2.65;0.70;;;16.00;99.90;;;;;;5093977;28;20052;-71
2022/09/20 11:59:07;;;;;;;3.15;0.80;;;16.10;99.90;;;;;;5093708;28;20384;-71
2022/09/20 12:01:41;;;;;;;2.55;0.50;;;16.20;99.90;;;;;;5091237;28;20079;-71
2022/09/20 12:04:13;;;;;;;1.85;0.60;;;16.30;99.90;;;;;;5075588;28;20485;-71
2022/09/20 12:06:41;;;;;;;3.40;0.60;;;16.40;99.90;;;;;;5093729;28;20044;-71
2022/09/20 12:09:25;;;;;;;7.28;1.20;;;16.50;99.90;;;;;;5093621;28;20478;-71
2022/09/20 12:11:51;;;;;;;4.38;0.80;;;16.60;99.90;;;;;;5090768;28;20048;-71
2022/09/20 12:14:22;;;;;;;1.98;0.70;;;16.70;99.90;;;;;;5093828;28;20089;-70
2022/09/20 12:16:49;;;;;;;2.63;0.60;;;16.70;99.90;;;;;;5093770;28;20074;-70
2022/09/20 12:19:31;;;;;;;3.60;0.80;;;16.80;99.90;;;;;;5093747;28;20070;-71
2022/09/20 12:21:59;;;;;;;1.65;0.60;;;17.10;99.90;;;;;;5092248;28;20051;-71
2022/09/20 12:24:28;;;;;;;1.67;0.50;;;17.20;99.90;;;;;;5093624;28;20098;-71
2022/09/20 12:27:40;;;;;;;2.75;0.75;;;17.10;99.90;;;;;;5093619;28;20114;-71
2022/09/20 12:30:20;;;;;;;3.45;0.70;;;17.20;99.90;;;;;;5093334;28;20071;-71
2022/09/20 12:32:55;;;;;;;2.28;0.50;;;17.20;99.90;;;;;;5091059;28;20052;-71
2022/09/20 12:35:37;;;;;;;3.35;0.55;;;17.30;99.90;;;;;;5093547;28;20041;-71
2022/09/20 12:38:36;;;;;;;4.68;1.23;;;17.30;99.90;;;;;;5093271;28;20052;-71
2022/09/20 12:41:12;;;;;;;1.40;0.47;;;17.40;99.90;;;;;;5028163;28;20495;-71
2022/09/20 12:44:19;;;;;;;3.60;0.80;;;17.60;99.90;;;;;;5073294;28;20045;-72
2022/09/20 12:47:00;;;;;;;4.03;0.75;;;17.30;99.90;;;;;;5073258;28;20045;-71
2022/09/20 12:52:49;;;;;;;2.58;0.60;;;17.50;99.90;;;;;;5073158;28;20071;-72
2022/09/20 12:55:29;;;;;;;2.88;0.80;;;17.60;99.90;;;;;;5085142;28;20052;-71
2022/09/20 12:58:12;;;;;;;3.90;1.00;;;17.60;99.90;;;;;;5093246;28;20093;-71
2022/09/20 13:00:47;;;;;;;4.13;1.00;;;;;;;;;;5093340;28;20114;-72
2022/09/20 13:03:35;;;;;;;1.90;0.80;;;17.90;99.90;;;;;;5090514;28;20039;-71
2022/09/20 13:06:10;;;;;;;3.30;0.98;;;18.20;99.90;;;;;;5092874;28;20487;-71
2022/09/20 13:08:47;;;;;;;4.85;0.98;;;18.30;99.90;;;;;;5074949;28;20556;-71
2022/09/20 13:11:19;;;;;;;2.75;0.75;;;18.20;99.90;;;;;;5090470;28;20044;-71
2022/09/20 13:13:58;;;;;;;5.03;0.88;;;17.90;99.90;;;;;;5092980;28;20048;-71
2022/09/20 13:17:05;;;;;;;4.95;1.10;;;17.70;99.90;;;;;;5092913;28;20193;-71
2022/09/20 13:19:58;;;;;;;4.18;0.95;;;18.50;99.90;;;;;;5093053;28;20047;-71
2022/09/20 13:22:36;;;;;;;3.47;1.05;;;19.00;99.90;;;;;;5079431;28;20172;-71
2022/09/20 13:25:06;;;;;;;4.63;0.80;;;18.90;99.90;;;;;;5072673;28;20510;-71
2022/09/20 13:27:39;;;;;;;2.63;0.68;;;18.90;99.90;;;;;;5040785;28;20033;-71
2022/09/20 13:30:16;;;;;;;5.22;1.02;;;18.70;99.90;;;;;;5042322;28;20127;-70
2022/09/20 13:32:42;;;;;;;5.97;0.93;;;18.40;99.90;;;;;;5088318;28;20055;-71
2022/09/20 13:35:11;;;;;;;5.82;1.15;;;18.00;99.90;;;;;;5078539;28;20074;-71
2022/09/20 13:37:44;;;;;;;6.55;1.20;;;17.60;99.90;;;;;;5078468;28;20398;-70
2022/09/20 13:40:32;;;;;;;5.95;1.13;;;17.20;99.90;;;;;;5095047;28;20084;-71
2022/09/20 13:43:05;;;;;;;4.88;1.20;;;16.90;99.90;;;;;;5096399;28;20087;-71
2022/09/20 13:45:32;;;;;;;5.30;1.17;;;16.70;99.90;;;;;;5096278;28;20109;-71
2022/09/20 13:48:00;;;;;;;3.17;1.05;;;16.70;99.90;;;;;;5076937;28;20055;-71
2022/09/20 13:50:25;;;;;;;3.50;0.82;;;16.70;99.90;;;;;;5096089;28;20478;-71
2022/09/20 13:53:00;;;;;;;6.13;1.02;;;16.80;99.90;;;;;;5096591;28;20059;-71
2022/09/20 13:55:32;;;;;;;7.97;1.30;;;16.80;99.90;;;;;;5096206;28;20043;-71
2022/09/20 13:58:19;;;;;;;2.55;1.08;;;17.00;99.90;;;;;;5095916;28;20040;-72
2022/09/20 14:00:57;;;;;;;5.10;0.90;;;17.00;99.90;;;;;;5093436;28;20051;-71
2022/09/20 14:03:24;;;;;;;6.00;1.15;;;17.20;99.90;;;;;;5096086;28;20494;-71